sensor_id;sensor_type;location;lat;lon;timestamp;P1;durP1;ratioP1;P2;durP2;ratioP2
52888;SDS011;41413;52.770;6.892;2022-08-30T00:01:57;7.03;;;3.35;;
52888;SDS011;41413;52.770;6.892;2022-08-30T00:04:24;3.80;;;3.40;;
52888;SDS011;41413;52.770;6.892;2022-08-30T00:06:51;5.57;;;3.88;;
52888;SDS011;41413;52.770;6.892;2022-08-30T00:09:18;4.20;;;3.90;;
52888;SDS011;41413;52.770;6.892;2022-08-30T00:11:44;5.00;;;3.53;;
52888;SDS011;41413;52.770;6.892;2022-08-30T00:14:11;5.22;;;3.85;;
52888;SDS011;41413;52.770;6.892;2022-08-30T00:16:38;4.78;;;3.33;;
52888;SDS011;41413;52.770;6.892;2022-08-30T00:19:04;6.05;;;4.15;;
52888;SDS011;41413;52.770;6.892;2022-08-30T00:21:31;5.43;;;3.72;;
52888;SDS011;41413;52.770;6.892;2022-08-30T00:23:58;10.00;;;4.13;;
52888;SDS011;41413;52.770;6.892;2022-08-30T00:26:25;4.72;;;4.32;;
52888;SDS011;41413;52.770;6.892;2022-08-30T00:28:52;6.25;;;3.50;;
52888;SDS011;41413;52.770;6.892;2022-08-30T00:31:20;3.97;;;3.67;;
52888;SDS011;41413;52.770;6.892;2022-08-30T00:33:46;5.10;;;4.50;;
52888;SDS011;41413;52.770;6.892;2022-08-30T00:36:13;4.82;;;4.18;;
52888;SDS011;41413;52.770;6.892;2022-08-30T00:38:41;4.53;;;4.15;;
52888;SDS011;41413;52.770;6.892;2022-08-30T00:41:07;5.25;;;4.10;;
52888;SDS011;41413;52.770;6.892;2022-08-30T00:43:35;5.65;;;4.43;;
52888;SDS011;41413;52.770;6.892;2022-08-30T00:46:02;7.45;;;4.18;;
52888;SDS011;41413;52.770;6.892;2022-08-30T00:48:33;4.45;;;4.05;;
52888;SDS011;41413;52.770;6.892;2022-08-30T00:51:06;5.57;;;4.40;;
52888;SDS011;41413;52.770;6.892;2022-08-30T00:53:37;8.57;;;4.65;;
52888;SDS011;41413;52.770;6.892;2022-08-30T00:56:07;4.63;;;4.18;;
52888;SDS011;41413;52.770;6.892;2022-08-30T00:58:36;4.40;;;4.00;;
52888;SDS011;41413;52.770;6.892;2022-08-30T01:01:07;6.03;;;4.20;;
52888;SDS011;41413;52.770;6.892;2022-08-30T01:03:35;4.50;;;3.78;;
52888;SDS011;41413;52.770;6.892;2022-08-30T01:06:03;5.32;;;4.38;;
52888;SDS011;41413;52.770;6.892;2022-08-30T01:08:30;4.50;;;4.10;;
52888;SDS011;41413;52.770;6.892;2022-08-30T01:10:57;4.53;;;4.13;;
52888;SDS011;41413;52.770;6.892;2022-08-30T01:13:25;6.45;;;4.72;;
52888;SDS011;41413;52.770;6.892;2022-08-30T01:15:53;5.45;;;3.97;;
52888;SDS011;41413;52.770;6.892;2022-08-30T01:18:21;4.75;;;4.35;;
52888;SDS011;41413;52.770;6.892;2022-08-30T01:20:52;4.25;;;3.88;;
52888;SDS011;41413;52.770;6.892;2022-08-30T01:23:28;4.35;;;3.97;;
52888;SDS011;41413;52.770;6.892;2022-08-30T01:25:57;5.15;;;3.78;;
52888;SDS011;41413;52.770;6.892;2022-08-30T01:28:25;5.07;;;3.97;;
52888;SDS011;41413;52.770;6.892;2022-08-30T01:30:52;5.53;;;4.38;;
52888;SDS011;41413;52.770;6.892;2022-08-30T01:33:19;5.30;;;4.07;;
52888;SDS011;41413;52.770;6.892;2022-08-30T01:36:22;8.20;;;4.35;;
52888;SDS011;41413;52.770;6.892;2022-08-30T01:38:46;4.32;;;4.03;;
52888;SDS011;41413;52.770;6.892;2022-08-30T01:41:18;5.35;;;4.38;;
52888;SDS011;41413;52.770;6.892;2022-08-30T01:43:52;5.20;;;4.22;;
52888;SDS011;41413;52.770;6.892;2022-08-30T01:46:23;5.78;;;5.05;;
52888;SDS011;41413;52.770;6.892;2022-08-30T01:48:53;4.75;;;4.43;;
52888;SDS011;41413;52.770;6.892;2022-08-30T01:51:22;5.75;;;5.03;;
52888;SDS011;41413;52.770;6.892;2022-08-30T01:53:51;4.78;;;4.38;;
52888;SDS011;41413;52.770;6.892;2022-08-30T01:56:18;6.28;;;4.25;;
52888;SDS011;41413;52.770;6.892;2022-08-30T01:58:45;4.78;;;4.10;;
52888;SDS011;41413;52.770;6.892;2022-08-30T02:01:13;4.82;;;4.43;;
52888;SDS011;41413;52.770;6.892;2022-08-30T02:03:42;5.93;;;4.65;;
52888;SDS011;41413;52.770;6.892;2022-08-30T02:06:11;5.25;;;4.75;;
52888;SDS011;41413;52.770;6.892;2022-08-30T02:08:40;7.35;;;4.82;;
52888;SDS011;41413;52.770;6.892;2022-08-30T02:11:07;5.57;;;5.07;;
52888;SDS011;41413;52.770;6.892;2022-08-30T02:13:34;5.25;;;4.82;;
52888;SDS011;41413;52.770;6.892;2022-08-30T02:16:06;5.43;;;4.93;;
52888;SDS011;41413;52.770;6.892;2022-08-30T02:18:34;6.57;;;4.63;;
52888;SDS011;41413;52.770;6.892;2022-08-30T02:21:01;5.13;;;4.63;;
52888;SDS011;41413;52.770;6.892;2022-08-30T02:23:28;6.68;;;5.07;;
52888;SDS011;41413;52.770;6.892;2022-08-30T02:25:56;5.40;;;4.90;;
52888;SDS011;41413;52.770;6.892;2022-08-30T02:28:23;6.82;;;4.55;;
52888;SDS011;41413;52.770;6.892;2022-08-30T02:30:50;5.32;;;4.82;;
52888;SDS011;41413;52.770;6.892;2022-08-30T02:33:17;5.78;;;4.65;;
52888;SDS011;41413;52.770;6.892;2022-08-30T02:35:44;5.65;;;5.15;;
52888;SDS011;41413;52.770;6.892;2022-08-30T02:38:11;4.63;;;4.22;;
52888;SDS011;41413;52.770;6.892;2022-08-30T02:40:38;8.38;;;4.90;;
52888;SDS011;41413;52.770;6.892;2022-08-30T02:43:05;5.85;;;5.32;;
52888;SDS011;41413;52.770;6.892;2022-08-30T02:45:32;4.95;;;4.55;;
52888;SDS011;41413;52.770;6.892;2022-08-30T02:47:59;6.30;;;5.47;;
52888;SDS011;41413;52.770;6.892;2022-08-30T02:50:25;9.88;;;5.72;;
52888;SDS011;41413;52.770;6.892;2022-08-30T02:52:53;5.43;;;4.93;;
52888;SDS011;41413;52.770;6.892;2022-08-30T02:55:20;5.43;;;4.82;;
52888;SDS011;41413;52.770;6.892;2022-08-30T02:57:47;5.50;;;4.95;;
52888;SDS011;41413;52.770;6.892;2022-08-30T03:00:15;5.55;;;4.88;;
52888;SDS011;41413;52.770;6.892;2022-08-30T03:02:43;5.82;;;4.53;;
52888;SDS011;41413;52.770;6.892;2022-08-30T03:05:11;5.20;;;4.70;;
52888;SDS011;41413;52.770;6.892;2022-08-30T03:07:40;4.60;;;4.20;;
52888;SDS011;41413;52.770;6.892;2022-08-30T03:10:07;6.38;;;4.95;;
52888;SDS011;41413;52.770;6.892;2022-08-30T03:12:36;10.43;;;5.45;;
52888;SDS011;41413;52.770;6.892;2022-08-30T03:15:06;6.57;;;5.15;;
52888;SDS011;41413;52.770;6.892;2022-08-30T03:17:37;8.38;;;5.75;;
52888;SDS011;41413;52.770;6.892;2022-08-30T03:20:05;5.32;;;4.88;;
52888;SDS011;41413;52.770;6.892;2022-08-30T03:22:33;5.97;;;5.47;;
52888;SDS011;41413;52.770;6.892;2022-08-30T03:25:00;5.30;;;4.78;;
52888;SDS011;41413;52.770;6.892;2022-08-30T03:27:27;5.50;;;5.10;;
52888;SDS011;41413;52.770;6.892;2022-08-30T03:29:54;5.90;;;5.38;;
52888;SDS011;41413;52.770;6.892;2022-08-30T03:32:21;5.25;;;4.72;;
52888;SDS011;41413;52.770;6.892;2022-08-30T03:34:49;5.75;;;5.25;;
52888;SDS011;41413;52.770;6.892;2022-08-30T03:37:15;6.13;;;5.45;;
52888;SDS011;41413;52.770;6.892;2022-08-30T03:39:43;5.97;;;5.50;;
52888;SDS011;41413;52.770;6.892;2022-08-30T03:42:10;6.90;;;6.20;;
52888;SDS011;41413;52.770;6.892;2022-08-30T03:44:38;11.25;;;5.85;;
52888;SDS011;41413;52.770;6.892;2022-08-30T03:47:05;7.10;;;6.40;;
52888;SDS011;41413;52.770;6.892;2022-08-30T03:49:33;7.53;;;6.15;;
52888;SDS011;41413;52.770;6.892;2022-08-30T03:52:00;7.00;;;6.40;;
52888;SDS011;41413;52.770;6.892;2022-08-30T03:54:26;6.28;;;5.63;;
52888;SDS011;41413;52.770;6.892;2022-08-30T03:56:53;6.25;;;5.75;;
52888;SDS011;41413;52.770;6.892;2022-08-30T03:59:21;8.25;;;6.70;;
52888;SDS011;41413;52.770;6.892;2022-08-30T04:01:48;7.47;;;6.78;;
52888;SDS011;41413;52.770;6.892;2022-08-30T04:04:15;6.70;;;5.90;;
52888;SDS011;41413;52.770;6.892;2022-08-30T04:06:46;6.50;;;5.90;;
52888;SDS011;41413;52.770;6.892;2022-08-30T04:09:13;8.30;;;6.82;;
52888;SDS011;41413;52.770;6.892;2022-08-30T04:11:40;7.13;;;6.28;;
52888;SDS011;41413;52.770;6.892;2022-08-30T04:14:06;7.45;;;6.78;;
52888;SDS011;41413;52.770;6.892;2022-08-30T04:16:33;6.90;;;6.30;;
52888;SDS011;41413;52.770;6.892;2022-08-30T04:19:00;7.15;;;6.45;;
52888;SDS011;41413;52.770;6.892;2022-08-30T04:21:27;6.97;;;6.30;;
52888;SDS011;41413;52.770;6.892;2022-08-30T04:23:54;6.97;;;6.38;;
52888;SDS011;41413;52.770;6.892;2022-08-30T04:26:21;7.45;;;6.80;;
52888;SDS011;41413;52.770;6.892;2022-08-30T04:28:54;8.15;;;7.45;;
52888;SDS011;41413;52.770;6.892;2022-08-30T04:31:21;10.48;;;7.28;;
52888;SDS011;41413;52.770;6.892;2022-08-30T04:33:48;8.02;;;6.55;;
52888;SDS011;41413;52.770;6.892;2022-08-30T04:36:15;7.43;;;6.82;;
52888;SDS011;41413;52.770;6.892;2022-08-30T04:38:42;7.28;;;6.55;;
52888;SDS011;41413;52.770;6.892;2022-08-30T04:41:16;8.15;;;7.53;;
52888;SDS011;41413;52.770;6.892;2022-08-30T04:43:44;7.47;;;6.88;;
52888;SDS011;41413;52.770;6.892;2022-08-30T04:46:12;6.97;;;6.38;;
52888;SDS011;41413;52.770;6.892;2022-08-30T04:48:39;8.15;;;6.63;;
52888;SDS011;41413;52.770;6.892;2022-08-30T04:51:07;7.20;;;6.60;;
52888;SDS011;41413;52.770;6.892;2022-08-30T04:53:36;6.32;;;5.85;;
52888;SDS011;41413;52.770;6.892;2022-08-30T04:56:10;7.50;;;6.90;;
52888;SDS011;41413;52.770;6.892;2022-08-30T04:58:43;7.25;;;6.57;;
52888;SDS011;41413;52.770;6.892;2022-08-30T05:01:12;8.55;;;7.22;;
52888;SDS011;41413;52.770;6.892;2022-08-30T05:03:45;7.85;;;7.25;;
52888;SDS011;41413;52.770;6.892;2022-08-30T05:06:13;7.57;;;6.80;;
52888;SDS011;41413;52.770;6.892;2022-08-30T05:08:40;7.20;;;6.63;;
52888;SDS011;41413;52.770;6.892;2022-08-30T05:11:12;7.82;;;7.10;;
52888;SDS011;41413;52.770;6.892;2022-08-30T05:13:39;7.55;;;6.95;;
52888;SDS011;41413;52.770;6.892;2022-08-30T05:16:06;7.28;;;6.20;;
52888;SDS011;41413;52.770;6.892;2022-08-30T05:18:34;7.63;;;6.93;;
52888;SDS011;41413;52.770;6.892;2022-08-30T05:21:05;7.65;;;7.05;;
52888;SDS011;41413;52.770;6.892;2022-08-30T05:23:34;7.32;;;6.63;;
52888;SDS011;41413;52.770;6.892;2022-08-30T05:26:05;10.15;;;7.85;;
52888;SDS011;41413;52.770;6.892;2022-08-30T05:28:34;8.48;;;7.78;;
52888;SDS011;41413;52.770;6.892;2022-08-30T05:31:02;7.93;;;7.13;;
52888;SDS011;41413;52.770;6.892;2022-08-30T05:33:39;7.63;;;7.05;;
52888;SDS011;41413;52.770;6.892;2022-08-30T05:36:06;8.07;;;7.40;;
52888;SDS011;41413;52.770;6.892;2022-08-30T05:38:33;7.82;;;7.20;;
52888;SDS011;41413;52.770;6.892;2022-08-30T05:41:00;8.65;;;7.85;;
52888;SDS011;41413;52.770;6.892;2022-08-30T05:43:33;8.50;;;7.43;;
52888;SDS011;41413;52.770;6.892;2022-08-30T05:46:02;8.15;;;7.35;;
52888;SDS011;41413;52.770;6.892;2022-08-30T05:48:31;11.35;;;7.70;;
52888;SDS011;41413;52.770;6.892;2022-08-30T05:53:37;7.97;;;7.20;;
52888;SDS011;41413;52.770;6.892;2022-08-30T05:56:05;9.43;;;6.80;;
52888;SDS011;41413;52.770;6.892;2022-08-30T05:58:37;10.48;;;6.75;;
52888;SDS011;41413;52.770;6.892;2022-08-30T06:01:04;9.23;;;7.32;;
52888;SDS011;41413;52.770;6.892;2022-08-30T06:03:31;7.47;;;6.82;;
52888;SDS011;41413;52.770;6.892;2022-08-30T06:05:59;6.68;;;6.15;;
52888;SDS011;41413;52.770;6.892;2022-08-30T06:08:26;6.45;;;5.85;;
52888;SDS011;41413;52.770;6.892;2022-08-30T06:10:53;7.07;;;6.38;;
52888;SDS011;41413;52.770;6.892;2022-08-30T06:13:20;6.55;;;5.72;;
52888;SDS011;41413;52.770;6.892;2022-08-30T06:15:47;7.88;;;6.20;;
52888;SDS011;41413;52.770;6.892;2022-08-30T06:18:14;6.18;;;5.68;;
52888;SDS011;41413;52.770;6.892;2022-08-30T06:20:42;6.35;;;5.85;;
52888;SDS011;41413;52.770;6.892;2022-08-30T06:23:15;5.72;;;5.18;;
52888;SDS011;41413;52.770;6.892;2022-08-30T06:25:43;7.78;;;5.38;;
52888;SDS011;41413;52.770;6.892;2022-08-30T06:28:10;6.53;;;5.85;;
52888;SDS011;41413;52.770;6.892;2022-08-30T06:30:38;6.32;;;5.43;;
52888;SDS011;41413;52.770;6.892;2022-08-30T06:33:07;8.30;;;5.95;;
52888;SDS011;41413;52.770;6.892;2022-08-30T06:35:35;5.22;;;4.72;;
52888;SDS011;41413;52.770;6.892;2022-08-30T06:38:22;5.05;;;4.38;;
52888;SDS011;41413;52.770;6.892;2022-08-30T06:40:48;6.80;;;5.13;;
52888;SDS011;41413;52.770;6.892;2022-08-30T06:43:16;8.05;;;5.78;;
52888;SDS011;41413;52.770;6.892;2022-08-30T06:45:42;4.30;;;3.90;;
52888;SDS011;41413;52.770;6.892;2022-08-30T06:48:09;5.88;;;3.88;;
52888;SDS011;41413;52.770;6.892;2022-08-30T06:50:36;4.47;;;3.95;;
52888;SDS011;41413;52.770;6.892;2022-08-30T06:53:02;7.47;;;4.88;;
52888;SDS011;41413;52.770;6.892;2022-08-30T06:55:31;5.55;;;4.50;;
52888;SDS011;41413;52.770;6.892;2022-08-30T06:58:00;7.53;;;4.70;;
52888;SDS011;41413;52.770;6.892;2022-08-30T07:00:28;4.25;;;3.85;;
52888;SDS011;41413;52.770;6.892;2022-08-30T07:02:56;4.03;;;3.65;;
52888;SDS011;41413;52.770;6.892;2022-08-30T07:05:23;4.57;;;3.60;;
52888;SDS011;41413;52.770;6.892;2022-08-30T07:07:50;5.85;;;3.78;;
52888;SDS011;41413;52.770;6.892;2022-08-30T07:10:20;3.47;;;3.17;;
52888;SDS011;41413;52.770;6.892;2022-08-30T07:12:47;3.55;;;3.25;;
52888;SDS011;41413;52.770;6.892;2022-08-30T07:15:14;3.58;;;3.28;;
52888;SDS011;41413;52.770;6.892;2022-08-30T07:17:41;9.95;;;4.28;;
52888;SDS011;41413;52.770;6.892;2022-08-30T07:20:26;4.07;;;2.83;;
52888;SDS011;41413;52.770;6.892;2022-08-30T07:23:05;13.35;;;3.67;;
52888;SDS011;41413;52.770;6.892;2022-08-30T07:25:31;3.17;;;2.60;;
52888;SDS011;41413;52.770;6.892;2022-08-30T07:27:58;3.10;;;2.17;;
52888;SDS011;41413;52.770;6.892;2022-08-30T07:30:25;3.47;;;2.08;;
52888;SDS011;41413;52.770;6.892;2022-08-30T07:32:52;2.67;;;2.30;;
52888;SDS011;41413;52.770;6.892;2022-08-30T07:35:18;3.03;;;2.05;;
52888;SDS011;41413;52.770;6.892;2022-08-30T07:37:45;4.30;;;2.28;;
52888;SDS011;41413;52.770;6.892;2022-08-30T07:40:12;5.55;;;2.63;;
52888;SDS011;41413;52.770;6.892;2022-08-30T07:42:39;2.78;;;2.53;;
52888;SDS011;41413;52.770;6.892;2022-08-30T07:45:06;6.78;;;2.33;;
52888;SDS011;41413;52.770;6.892;2022-08-30T07:47:33;4.55;;;2.50;;
52888;SDS011;41413;52.770;6.892;2022-08-30T07:50:01;2.33;;;1.98;;
52888;SDS011;41413;52.770;6.892;2022-08-30T07:52:28;4.38;;;2.55;;
52888;SDS011;41413;52.770;6.892;2022-08-30T07:54:56;4.70;;;3.67;;
52888;SDS011;41413;52.770;6.892;2022-08-30T07:57:24;3.88;;;3.05;;
52888;SDS011;41413;52.770;6.892;2022-08-30T07:59:51;4.25;;;2.63;;
52888;SDS011;41413;52.770;6.892;2022-08-30T08:02:18;6.50;;;2.70;;
52888;SDS011;41413;52.770;6.892;2022-08-30T08:04:45;3.70;;;2.75;;
52888;SDS011;41413;52.770;6.892;2022-08-30T08:07:13;3.10;;;2.80;;
52888;SDS011;41413;52.770;6.892;2022-08-30T08:09:40;4.88;;;3.33;;
52888;SDS011;41413;52.770;6.892;2022-08-30T08:12:07;7.30;;;3.47;;
52888;SDS011;41413;52.770;6.892;2022-08-30T08:14:34;3.33;;;2.83;;
52888;SDS011;41413;52.770;6.892;2022-08-30T08:17:01;5.68;;;2.90;;
52888;SDS011;41413;52.770;6.892;2022-08-30T08:19:28;3.08;;;2.80;;
52888;SDS011;41413;52.770;6.892;2022-08-30T08:21:55;4.00;;;2.55;;
52888;SDS011;41413;52.770;6.892;2022-08-30T08:24:45;3.72;;;2.70;;
52888;SDS011;41413;52.770;6.892;2022-08-30T08:27:11;3.42;;;2.22;;
52888;SDS011;41413;52.770;6.892;2022-08-30T08:29:38;3.20;;;2.80;;
52888;SDS011;41413;52.770;6.892;2022-08-30T08:32:05;3.20;;;2.88;;
52888;SDS011;41413;52.770;6.892;2022-08-30T08:34:31;2.40;;;2.20;;
52888;SDS011;41413;52.770;6.892;2022-08-30T08:36:59;4.63;;;2.53;;
52888;SDS011;41413;52.770;6.892;2022-08-30T08:39:26;3.80;;;2.30;;
52888;SDS011;41413;52.770;6.892;2022-08-30T08:47:36;3.00;;;2.70;;
52888;SDS011;41413;52.770;6.892;2022-08-30T08:50:08;2.78;;;2.03;;
52888;SDS011;41413;52.770;6.892;2022-08-30T08:56:09;3.30;;;3.00;;
52888;SDS011;41413;52.770;6.892;2022-08-30T08:58:44;3.13;;;2.88;;
52888;SDS011;41413;52.770;6.892;2022-08-30T09:01:14;3.35;;;2.60;;
52888;SDS011;41413;52.770;6.892;2022-08-30T09:03:42;3.25;;;3.05;;
52888;SDS011;41413;52.770;6.892;2022-08-30T09:06:21;4.70;;;3.13;;
52888;SDS011;41413;52.770;6.892;2022-08-30T09:09:10;2.95;;;2.70;;
52888;SDS011;41413;52.770;6.892;2022-08-30T09:11:37;3.22;;;2.67;;
52888;SDS011;41413;52.770;6.892;2022-08-30T09:14:11;3.72;;;2.97;;
52888;SDS011;41413;52.770;6.892;2022-08-30T09:16:49;5.63;;;3.47;;
52888;SDS011;41413;52.770;6.892;2022-08-30T09:22:05;2.90;;;2.53;;
52888;SDS011;41413;52.770;6.892;2022-08-30T09:24:46;2.80;;;2.53;;
52888;SDS011;41413;52.770;6.892;2022-08-30T09:27:19;6.78;;;2.95;;
52888;SDS011;41413;52.770;6.892;2022-08-30T09:30:03;4.45;;;2.97;;
52888;SDS011;41413;52.770;6.892;2022-08-30T09:32:32;3.97;;;2.97;;
52888;SDS011;41413;52.770;6.892;2022-08-30T09:35:12;3.00;;;2.75;;
52888;SDS011;41413;52.770;6.892;2022-08-30T09:37:46;3.50;;;2.47;;
52888;SDS011;41413;52.770;6.892;2022-08-30T09:40:23;2.58;;;2.40;;
52888;SDS011;41413;52.770;6.892;2022-08-30T09:43:03;2.70;;;2.50;;
52888;SDS011;41413;52.770;6.892;2022-08-30T09:45:43;3.03;;;2.75;;
52888;SDS011;41413;52.770;6.892;2022-08-30T09:53:33;2.70;;;2.50;;
52888;SDS011;41413;52.770;6.892;2022-08-30T09:59:21;3.78;;;3.20;;
52888;SDS011;41413;52.770;6.892;2022-08-30T10:05:21;3.28;;;2.05;;
52888;SDS011;41413;52.770;6.892;2022-08-30T10:10:53;2.58;;;2.33;;
52888;SDS011;41413;52.770;6.892;2022-08-30T10:18:50;2.90;;;2.70;;
52888;SDS011;41413;52.770;6.892;2022-08-30T10:21:37;2.72;;;2.53;;
52888;SDS011;41413;52.770;6.892;2022-08-30T10:24:12;2.30;;;2.20;;
52888;SDS011;41413;52.770;6.892;2022-08-30T10:27:17;4.07;;;2.53;;
52888;SDS011;41413;52.770;6.892;2022-08-30T10:30:03;3.38;;;2.55;;
52888;SDS011;41413;52.770;6.892;2022-08-30T10:35:22;3.30;;;3.05;;
52888;SDS011;41413;52.770;6.892;2022-08-30T10:38:09;5.55;;;2.40;;
52888;SDS011;41413;52.770;6.892;2022-08-30T10:40:46;3.65;;;3.35;;
52888;SDS011;41413;52.770;6.892;2022-08-30T10:46:39;2.65;;;2.45;;
52888;SDS011;41413;52.770;6.892;2022-08-30T10:49:17;2.75;;;2.55;;
52888;SDS011;41413;52.770;6.892;2022-08-30T10:51:49;3.15;;;2.95;;
52888;SDS011;41413;52.770;6.892;2022-08-30T10:57:13;4.10;;;2.67;;
52888;SDS011;41413;52.770;6.892;2022-08-30T10:59:42;2.63;;;2.42;;
52888;SDS011;41413;52.770;6.892;2022-08-30T11:13:15;9.32;;;2.75;;
52888;SDS011;41413;52.770;6.892;2022-08-30T11:18:43;4.30;;;2.60;;
52888;SDS011;41413;52.770;6.892;2022-08-30T11:37:29;4.00;;;2.72;;
52888;SDS011;41413;52.770;6.892;2022-08-30T11:40:07;3.40;;;2.10;;
52888;SDS011;41413;52.770;6.892;2022-08-30T11:43:00;2.25;;;1.90;;
52888;SDS011;41413;52.770;6.892;2022-08-30T11:46:16;3.15;;;2.80;;
52888;SDS011;41413;52.770;6.892;2022-08-30T12:00:26;2.30;;;2.10;;
52888;SDS011;41413;52.770;6.892;2022-08-30T12:03:01;2.25;;;2.15;;
52888;SDS011;41413;52.770;6.892;2022-08-30T12:08:06;3.28;;;2.28;;
52888;SDS011;41413;52.770;6.892;2022-08-30T12:10:36;2.45;;;2.30;;
52888;SDS011;41413;52.770;6.892;2022-08-30T12:16:11;3.10;;;2.00;;
52888;SDS011;41413;52.770;6.892;2022-08-30T12:18:48;3.50;;;2.40;;
52888;SDS011;41413;52.770;6.892;2022-08-30T12:21:38;3.13;;;2.85;;
52888;SDS011;41413;52.770;6.892;2022-08-30T12:26:46;2.55;;;2.30;;
52888;SDS011;41413;52.770;6.892;2022-08-30T12:31:45;2.17;;;2.03;;
52888;SDS011;41413;52.770;6.892;2022-08-30T12:34:18;2.17;;;1.98;;
52888;SDS011;41413;52.770;6.892;2022-08-30T12:36:53;6.88;;;2.15;;
52888;SDS011;41413;52.770;6.892;2022-08-30T12:39:28;3.45;;;2.53;;
52888;SDS011;41413;52.770;6.892;2022-08-30T12:42:16;1.88;;;1.77;;
52888;SDS011;41413;52.770;6.892;2022-08-30T12:44:53;2.22;;;2.10;;
52888;SDS011;41413;52.770;6.892;2022-08-30T12:47:28;2.83;;;1.80;;
52888;SDS011;41413;52.770;6.892;2022-08-30T12:49:59;2.30;;;2.20;;
52888;SDS011;41413;52.770;6.892;2022-08-30T12:55:21;2.60;;;2.50;;
52888;SDS011;41413;52.770;6.892;2022-08-30T12:58:05;2.65;;;2.45;;
52888;SDS011;41413;52.770;6.892;2022-08-30T13:00:38;5.75;;;2.80;;
52888;SDS011;41413;52.770;6.892;2022-08-30T13:06:02;3.58;;;3.30;;
52888;SDS011;41413;52.770;6.892;2022-08-30T13:11:11;2.92;;;2.70;;
52888;SDS011;41413;52.770;6.892;2022-08-30T13:13:56;2.28;;;2.17;;
52888;SDS011;41413;52.770;6.892;2022-08-30T13:16:44;2.58;;;2.38;;
52888;SDS011;41413;52.770;6.892;2022-08-30T13:19:30;2.83;;;2.40;;
52888;SDS011;41413;52.770;6.892;2022-08-30T13:21:59;3.38;;;3.00;;
52888;SDS011;41413;52.770;6.892;2022-08-30T13:24:27;2.55;;;2.45;;
52888;SDS011;41413;52.770;6.892;2022-08-30T13:26:55;2.47;;;2.28;;
52888;SDS011;41413;52.770;6.892;2022-08-30T13:29:26;2.65;;;2.42;;
52888;SDS011;41413;52.770;6.892;2022-08-30T13:31:54;2.30;;;2.20;;
52888;SDS011;41413;52.770;6.892;2022-08-30T13:34:21;2.42;;;2.33;;
52888;SDS011;41413;52.770;6.892;2022-08-30T13:36:50;2.70;;;2.50;;
52888;SDS011;41413;52.770;6.892;2022-08-30T13:39:20;2.92;;;2.20;;
52888;SDS011;41413;52.770;6.892;2022-08-30T13:41:47;2.88;;;2.67;;
52888;SDS011;41413;52.770;6.892;2022-08-30T13:44:14;2.80;;;2.47;;
52888;SDS011;41413;52.770;6.892;2022-08-30T13:46:42;2.55;;;2.45;;
52888;SDS011;41413;52.770;6.892;2022-08-30T13:49:21;2.70;;;2.50;;
52888;SDS011;41413;52.770;6.892;2022-08-30T13:52:14;2.60;;;2.40;;
52888;SDS011;41413;52.770;6.892;2022-08-30T13:54:48;2.45;;;2.30;;
52888;SDS011;41413;52.770;6.892;2022-08-30T13:57:20;4.53;;;2.28;;
52888;SDS011;41413;52.770;6.892;2022-08-30T14:00:11;2.30;;;2.17;;
52888;SDS011;41413;52.770;6.892;2022-08-30T14:05:24;2.67;;;2.47;;
52888;SDS011;41413;52.770;6.892;2022-08-30T14:08:14;2.17;;;2.03;;
52888;SDS011;41413;52.770;6.892;2022-08-30T14:11:03;2.83;;;2.63;;
52888;SDS011;41413;52.770;6.892;2022-08-30T14:13:31;2.45;;;2.35;;
52888;SDS011;41413;52.770;6.892;2022-08-30T14:15:58;2.50;;;2.30;;
52888;SDS011;41413;52.770;6.892;2022-08-30T14:18:46;2.65;;;2.08;;
52888;SDS011;41413;52.770;6.892;2022-08-30T14:21:14;2.75;;;2.60;;
52888;SDS011;41413;52.770;6.892;2022-08-30T14:23:41;8.52;;;2.80;;
52888;SDS011;41413;52.770;6.892;2022-08-30T14:26:09;2.25;;;1.95;;
52888;SDS011;41413;52.770;6.892;2022-08-30T14:28:46;2.70;;;2.50;;
52888;SDS011;41413;52.770;6.892;2022-08-30T14:31:17;2.85;;;2.63;;
52888;SDS011;41413;52.770;6.892;2022-08-30T14:33:45;2.47;;;2.28;;
52888;SDS011;41413;52.770;6.892;2022-08-30T14:36:12;2.05;;;1.95;;
52888;SDS011;41413;52.770;6.892;2022-08-30T14:38:41;3.03;;;2.10;;
52888;SDS011;41413;52.770;6.892;2022-08-30T14:41:09;2.22;;;2.13;;
52888;SDS011;41413;52.770;6.892;2022-08-30T14:43:36;2.28;;;2.17;;
52888;SDS011;41413;52.770;6.892;2022-08-30T14:46:06;3.35;;;2.15;;
52888;SDS011;41413;52.770;6.892;2022-08-30T14:48:34;2.47;;;2.13;;
52888;SDS011;41413;52.770;6.892;2022-08-30T14:51:09;2.42;;;2.33;;
52888;SDS011;41413;52.770;6.892;2022-08-30T14:53:39;2.47;;;2.35;;
52888;SDS011;41413;52.770;6.892;2022-08-30T14:56:09;4.80;;;2.88;;
52888;SDS011;41413;52.770;6.892;2022-08-30T14:58:38;3.08;;;2.38;;
52888;SDS011;41413;52.770;6.892;2022-08-30T15:01:06;2.10;;;2.00;;
52888;SDS011;41413;52.770;6.892;2022-08-30T15:03:34;2.67;;;2.47;;
52888;SDS011;41413;52.770;6.892;2022-08-30T15:06:01;2.50;;;2.30;;
52888;SDS011;41413;52.770;6.892;2022-08-30T15:08:29;1.65;;;1.55;;
52888;SDS011;41413;52.770;6.892;2022-08-30T15:10:56;2.35;;;2.15;;
52888;SDS011;41413;52.770;6.892;2022-08-30T15:13:24;3.42;;;2.05;;
52888;SDS011;41413;52.770;6.892;2022-08-30T15:15:51;2.47;;;2.20;;
52888;SDS011;41413;52.770;6.892;2022-08-30T15:18:18;2.15;;;2.05;;
52888;SDS011;41413;52.770;6.892;2022-08-30T15:20:48;2.42;;;2.20;;
52888;SDS011;41413;52.770;6.892;2022-08-30T15:23:15;4.88;;;2.58;;
52888;SDS011;41413;52.770;6.892;2022-08-30T15:25:48;3.30;;;2.72;;
52888;SDS011;41413;52.770;6.892;2022-08-30T15:28:14;3.05;;;2.38;;
52888;SDS011;41413;52.770;6.892;2022-08-30T15:30:42;2.35;;;1.88;;
52888;SDS011;41413;52.770;6.892;2022-08-30T15:33:09;2.53;;;2.35;;
52888;SDS011;41413;52.770;6.892;2022-08-30T15:35:36;2.42;;;2.33;;
52888;SDS011;41413;52.770;6.892;2022-08-30T15:38:02;2.63;;;2.50;;
52888;SDS011;41413;52.770;6.892;2022-08-30T15:40:30;5.93;;;2.97;;
52888;SDS011;41413;52.770;6.892;2022-08-30T15:43:01;2.55;;;2.15;;
52888;SDS011;41413;52.770;6.892;2022-08-30T15:45:29;3.53;;;2.30;;
52888;SDS011;41413;52.770;6.892;2022-08-30T15:47:59;2.67;;;2.47;;
52888;SDS011;41413;52.770;6.892;2022-08-30T15:50:26;2.53;;;2.42;;
52888;SDS011;41413;52.770;6.892;2022-08-30T15:52:53;2.92;;;2.75;;
52888;SDS011;41413;52.770;6.892;2022-08-30T15:55:20;2.67;;;2.47;;
52888;SDS011;41413;52.770;6.892;2022-08-30T15:57:46;4.63;;;2.75;;
52888;SDS011;41413;52.770;6.892;2022-08-30T16:00:13;3.10;;;2.90;;
52888;SDS011;41413;52.770;6.892;2022-08-30T16:02:41;2.45;;;2.35;;
52888;SDS011;41413;52.770;6.892;2022-08-30T16:05:09;2.38;;;2.28;;
52888;SDS011;41413;52.770;6.892;2022-08-30T16:07:35;3.45;;;2.20;;
52888;SDS011;41413;52.770;6.892;2022-08-30T16:10:06;1.83;;;1.73;;
52888;SDS011;41413;52.770;6.892;2022-08-30T16:12:33;5.43;;;2.35;;
52888;SDS011;41413;52.770;6.892;2022-08-30T16:15:00;3.42;;;2.42;;
52888;SDS011;41413;52.770;6.892;2022-08-30T16:17:27;3.17;;;2.45;;
52888;SDS011;41413;52.770;6.892;2022-08-30T16:19:55;2.00;;;1.90;;
52888;SDS011;41413;52.770;6.892;2022-08-30T16:22:24;3.50;;;2.45;;
52888;SDS011;41413;52.770;6.892;2022-08-30T16:24:51;2.08;;;1.95;;
52888;SDS011;41413;52.770;6.892;2022-08-30T16:27:18;2.20;;;2.10;;
52888;SDS011;41413;52.770;6.892;2022-08-30T16:29:46;2.30;;;2.20;;
52888;SDS011;41413;52.770;6.892;2022-08-30T16:32:15;2.05;;;1.95;;
52888;SDS011;41413;52.770;6.892;2022-08-30T16:34:42;2.30;;;2.03;;
52888;SDS011;41413;52.770;6.892;2022-08-30T16:37:09;9.13;;;2.20;;
52888;SDS011;41413;52.770;6.892;2022-08-30T16:39:35;2.08;;;1.95;;
52888;SDS011;41413;52.770;6.892;2022-08-30T16:42:02;4.50;;;2.30;;
52888;SDS011;41413;52.770;6.892;2022-08-30T16:44:31;2.45;;;2.25;;
52888;SDS011;41413;52.770;6.892;2022-08-30T16:46:59;5.32;;;2.05;;
52888;SDS011;41413;52.770;6.892;2022-08-30T16:49:26;4.10;;;2.35;;
52888;SDS011;41413;52.770;6.892;2022-08-30T16:51:53;3.50;;;2.50;;
52888;SDS011;41413;52.770;6.892;2022-08-30T16:54:20;3.60;;;1.90;;